sensor_id;sensor_type;location;lat;lon;timestamp;P1;durP1;ratioP1;P2;durP2;ratioP2
69260;SDS011;56378;52.404;20.816;2024-03-06T00:00:56;65.15;;;28.40;;
69260;SDS011;56378;52.404;20.816;2024-03-06T00:03:22;61.90;;;28.10;;
69260;SDS011;56378;52.404;20.816;2024-03-06T00:05:48;61.88;;;28.92;;
69260;SDS011;56378;52.404;20.816;2024-03-06T00:08:14;58.55;;;28.00;;
69260;SDS011;56378;52.404;20.816;2024-03-06T00:10:40;63.17;;;28.08;;
69260;SDS011;56378;52.404;20.816;2024-03-06T00:13:06;65.22;;;29.30;;
69260;SDS011;56378;52.404;20.816;2024-03-06T00:15:32;62.37;;;29.50;;
69260;SDS011;56378;52.404;20.816;2024-03-06T00:17:58;61.57;;;29.50;;
69260;SDS011;56378;52.404;20.816;2024-03-06T00:20:25;61.10;;;28.65;;
69260;SDS011;56378;52.404;20.816;2024-03-06T00:22:51;62.80;;;28.52;;
69260;SDS011;56378;52.404;20.816;2024-03-06T00:25:17;57.93;;;28.03;;
69260;SDS011;56378;52.404;20.816;2024-03-06T00:27:42;62.65;;;28.83;;
69260;SDS011;56378;52.404;20.816;2024-03-06T00:30:08;61.93;;;29.00;;
69260;SDS011;56378;52.404;20.816;2024-03-06T00:32:34;61.95;;;28.02;;
69260;SDS011;56378;52.404;20.816;2024-03-06T00:35:00;53.00;;;27.48;;
69260;SDS011;56378;52.404;20.816;2024-03-06T00:37:26;56.20;;;27.77;;
69260;SDS011;56378;52.404;20.816;2024-03-06T00:39:51;54.80;;;27.08;;
69260;SDS011;56378;52.404;20.816;2024-03-06T00:42:17;52.30;;;27.47;;
69260;SDS011;56378;52.404;20.816;2024-03-06T00:44:43;55.53;;;27.40;;
69260;SDS011;56378;52.404;20.816;2024-03-06T00:47:08;49.50;;;25.47;;
69260;SDS011;56378;52.404;20.816;2024-03-06T00:49:34;52.38;;;25.98;;
69260;SDS011;56378;52.404;20.816;2024-03-06T00:52:00;52.40;;;26.83;;
69260;SDS011;56378;52.404;20.816;2024-03-06T00:54:26;49.30;;;25.77;;
69260;SDS011;56378;52.404;20.816;2024-03-06T00:56:51;55.57;;;27.20;;
69260;SDS011;56378;52.404;20.816;2024-03-06T00:59:17;54.63;;;26.27;;
69260;SDS011;56378;52.404;20.816;2024-03-06T01:01:43;50.43;;;25.50;;
69260;SDS011;56378;52.404;20.816;2024-03-06T01:04:08;51.15;;;25.27;;
69260;SDS011;56378;52.404;20.816;2024-03-06T01:06:34;49.50;;;25.03;;
69260;SDS011;56378;52.404;20.816;2024-03-06T01:09:00;46.78;;;24.70;;
69260;SDS011;56378;52.404;20.816;2024-03-06T01:11:26;49.53;;;25.23;;
69260;SDS011;56378;52.404;20.816;2024-03-06T01:13:52;48.77;;;23.90;;
69260;SDS011;56378;52.404;20.816;2024-03-06T01:16:18;49.25;;;24.65;;
69260;SDS011;56378;52.404;20.816;2024-03-06T01:18:44;50.67;;;25.20;;
69260;SDS011;56378;52.404;20.816;2024-03-06T01:21:09;48.53;;;24.93;;
69260;SDS011;56378;52.404;20.816;2024-03-06T01:23:35;43.10;;;22.93;;
69260;SDS011;56378;52.404;20.816;2024-03-06T01:26:01;45.45;;;22.88;;
69260;SDS011;56378;52.404;20.816;2024-03-06T01:28:26;47.50;;;23.53;;
69260;SDS011;56378;52.404;20.816;2024-03-06T01:30:52;46.80;;;21.50;;
69260;SDS011;56378;52.404;20.816;2024-03-06T01:33:18;42.33;;;21.80;;
69260;SDS011;56378;52.404;20.816;2024-03-06T01:35:43;43.85;;;21.80;;
69260;SDS011;56378;52.404;20.816;2024-03-06T01:38:09;41.03;;;21.23;;
69260;SDS011;56378;52.404;20.816;2024-03-06T01:40:35;38.47;;;21.17;;
69260;SDS011;56378;52.404;20.816;2024-03-06T01:43:01;41.00;;;20.50;;
69260;SDS011;56378;52.404;20.816;2024-03-06T01:45:27;41.60;;;21.70;;
69260;SDS011;56378;52.404;20.816;2024-03-06T01:47:53;40.03;;;21.15;;
69260;SDS011;56378;52.404;20.816;2024-03-06T01:50:18;41.15;;;20.60;;
69260;SDS011;56378;52.404;20.816;2024-03-06T01:52:44;36.95;;;19.80;;
69260;SDS011;56378;52.404;20.816;2024-03-06T01:55:11;36.53;;;19.50;;
69260;SDS011;56378;52.404;20.816;2024-03-06T01:57:38;35.80;;;19.33;;
69260;SDS011;56378;52.404;20.816;2024-03-06T02:00:05;36.28;;;19.15;;
69260;SDS011;56378;52.404;20.816;2024-03-06T02:02:38;37.50;;;19.63;;
69260;SDS011;56378;52.404;20.816;2024-03-06T02:05:07;43.97;;;19.65;;
69260;SDS011;56378;52.404;20.816;2024-03-06T02:07:33;35.95;;;19.15;;
69260;SDS011;56378;52.404;20.816;2024-03-06T02:09:59;35.60;;;19.13;;
69260;SDS011;56378;52.404;20.816;2024-03-06T02:12:25;35.87;;;18.33;;
69260;SDS011;56378;52.404;20.816;2024-03-06T02:14:52;32.72;;;17.88;;
69260;SDS011;56378;52.404;20.816;2024-03-06T02:17:18;34.03;;;18.17;;
69260;SDS011;56378;52.404;20.816;2024-03-06T02:19:44;35.20;;;17.93;;
69260;SDS011;56378;52.404;20.816;2024-03-06T02:22:10;32.17;;;17.47;;
69260;SDS011;56378;52.404;20.816;2024-03-06T02:24:36;34.50;;;17.42;;
69260;SDS011;56378;52.404;20.816;2024-03-06T02:27:03;33.17;;;17.17;;
69260;SDS011;56378;52.404;20.816;2024-03-06T02:29:32;32.58;;;17.75;;
69260;SDS011;56378;52.404;20.816;2024-03-06T02:31:58;32.47;;;17.63;;
69260;SDS011;56378;52.404;20.816;2024-03-06T02:34:26;31.27;;;17.60;;
69260;SDS011;56378;52.404;20.816;2024-03-06T02:36:52;32.20;;;17.88;;
69260;SDS011;56378;52.404;20.816;2024-03-06T02:39:17;35.67;;;17.73;;
69260;SDS011;56378;52.404;20.816;2024-03-06T02:41:44;34.78;;;18.13;;
69260;SDS011;56378;52.404;20.816;2024-03-06T02:44:10;35.50;;;18.37;;
69260;SDS011;56378;52.404;20.816;2024-03-06T02:46:35;36.25;;;18.40;;
69260;SDS011;56378;52.404;20.816;2024-03-06T02:49:01;33.07;;;17.37;;
69260;SDS011;56378;52.404;20.816;2024-03-06T02:51:27;36.45;;;17.65;;
69260;SDS011;56378;52.404;20.816;2024-03-06T02:53:52;38.50;;;18.03;;
69260;SDS011;56378;52.404;20.816;2024-03-06T02:56:18;37.65;;;18.80;;
69260;SDS011;56378;52.404;20.816;2024-03-06T02:58:45;33.95;;;18.00;;
69260;SDS011;56378;52.404;20.816;2024-03-06T03:01:11;36.20;;;18.77;;
69260;SDS011;56378;52.404;20.816;2024-03-06T03:03:40;35.03;;;18.27;;
69260;SDS011;56378;52.404;20.816;2024-03-06T03:06:06;37.13;;;18.02;;
69260;SDS011;56378;52.404;20.816;2024-03-06T03:08:32;35.88;;;18.15;;
69260;SDS011;56378;52.404;20.816;2024-03-06T03:10:58;38.57;;;18.80;;
69260;SDS011;56378;52.404;20.816;2024-03-06T03:13:23;35.80;;;17.85;;
69260;SDS011;56378;52.404;20.816;2024-03-06T03:15:49;36.17;;;18.37;;
69260;SDS011;56378;52.404;20.816;2024-03-06T03:18:16;34.20;;;17.95;;
69260;SDS011;56378;52.404;20.816;2024-03-06T03:20:42;34.55;;;17.92;;
69260;SDS011;56378;52.404;20.816;2024-03-06T03:23:08;33.30;;;17.98;;
69260;SDS011;56378;52.404;20.816;2024-03-06T03:25:37;37.10;;;17.50;;
69260;SDS011;56378;52.404;20.816;2024-03-06T03:28:03;33.10;;;18.02;;
69260;SDS011;56378;52.404;20.816;2024-03-06T03:30:29;38.95;;;19.10;;
69260;SDS011;56378;52.404;20.816;2024-03-06T03:32:57;34.50;;;18.70;;
69260;SDS011;56378;52.404;20.816;2024-03-06T03:35:23;35.77;;;18.83;;
69260;SDS011;56378;52.404;20.816;2024-03-06T03:37:53;39.22;;;18.48;;
69260;SDS011;56378;52.404;20.816;2024-03-06T03:40:20;34.63;;;17.83;;
69260;SDS011;56378;52.404;20.816;2024-03-06T03:42:46;35.88;;;18.10;;
69260;SDS011;56378;52.404;20.816;2024-03-06T03:45:12;31.52;;;18.02;;
69260;SDS011;56378;52.404;20.816;2024-03-06T03:47:38;31.97;;;17.37;;
69260;SDS011;56378;52.404;20.816;2024-03-06T03:50:05;36.30;;;18.40;;
69260;SDS011;56378;52.404;20.816;2024-03-06T03:52:31;32.50;;;17.33;;
69260;SDS011;56378;52.404;20.816;2024-03-06T03:54:56;36.67;;;17.67;;
69260;SDS011;56378;52.404;20.816;2024-03-06T03:57:22;35.40;;;17.08;;
69260;SDS011;56378;52.404;20.816;2024-03-06T03:59:48;35.23;;;16.70;;
69260;SDS011;56378;52.404;20.816;2024-03-06T04:02:13;37.28;;;17.25;;
69260;SDS011;56378;52.404;20.816;2024-03-06T04:04:39;32.33;;;17.80;;
69260;SDS011;56378;52.404;20.816;2024-03-06T04:07:05;33.47;;;16.48;;
69260;SDS011;56378;52.404;20.816;2024-03-06T04:09:33;31.13;;;17.17;;
69260;SDS011;56378;52.404;20.816;2024-03-06T04:12:01;32.20;;;15.65;;
69260;SDS011;56378;52.404;20.816;2024-03-06T04:14:28;29.05;;;16.48;;
69260;SDS011;56378;52.404;20.816;2024-03-06T04:16:55;32.13;;;15.65;;
69260;SDS011;56378;52.404;20.816;2024-03-06T04:19:21;31.95;;;15.98;;
69260;SDS011;56378;52.404;20.816;2024-03-06T04:21:46;34.57;;;17.17;;
69260;SDS011;56378;52.404;20.816;2024-03-06T04:24:12;36.87;;;16.80;;
69260;SDS011;56378;52.404;20.816;2024-03-06T04:26:38;32.55;;;16.40;;
69260;SDS011;56378;52.404;20.816;2024-03-06T04:29:03;30.73;;;16.27;;
69260;SDS011;56378;52.404;20.816;2024-03-06T04:31:29;30.98;;;16.33;;
69260;SDS011;56378;52.404;20.816;2024-03-06T04:33:55;29.37;;;15.27;;
69260;SDS011;56378;52.404;20.816;2024-03-06T04:36:20;32.47;;;16.00;;
69260;SDS011;56378;52.404;20.816;2024-03-06T04:38:46;30.20;;;16.00;;
69260;SDS011;56378;52.404;20.816;2024-03-06T04:41:12;31.05;;;15.98;;
69260;SDS011;56378;52.404;20.816;2024-03-06T04:43:38;34.10;;;16.03;;
69260;SDS011;56378;52.404;20.816;2024-03-06T04:46:03;35.65;;;16.52;;
69260;SDS011;56378;52.404;20.816;2024-03-06T04:48:29;30.03;;;15.90;;
69260;SDS011;56378;52.404;20.816;2024-03-06T04:50:55;30.10;;;15.55;;
69260;SDS011;56378;52.404;20.816;2024-03-06T04:53:21;32.22;;;16.60;;
69260;SDS011;56378;52.404;20.816;2024-03-06T04:55:46;29.70;;;15.55;;
69260;SDS011;56378;52.404;20.816;2024-03-06T04:58:12;29.60;;;15.67;;
69260;SDS011;56378;52.404;20.816;2024-03-06T05:00:38;37.80;;;16.40;;
69260;SDS011;56378;52.404;20.816;2024-03-06T05:03:04;28.88;;;14.63;;
69260;SDS011;56378;52.404;20.816;2024-03-06T05:05:30;28.70;;;15.07;;
69260;SDS011;56378;52.404;20.816;2024-03-06T05:07:57;32.20;;;15.23;;
69260;SDS011;56378;52.404;20.816;2024-03-06T05:10:23;28.67;;;15.07;;
69260;SDS011;56378;52.404;20.816;2024-03-06T05:12:48;27.00;;;14.50;;
69260;SDS011;56378;52.404;20.816;2024-03-06T05:15:15;33.17;;;14.55;;
69260;SDS011;56378;52.404;20.816;2024-03-06T05:17:41;28.23;;;13.55;;
69260;SDS011;56378;52.404;20.816;2024-03-06T05:20:07;26.67;;;13.77;;
69260;SDS011;56378;52.404;20.816;2024-03-06T05:22:33;28.55;;;14.40;;
69260;SDS011;56378;52.404;20.816;2024-03-06T05:24:58;27.25;;;13.43;;
69260;SDS011;56378;52.404;20.816;2024-03-06T05:27:24;28.02;;;13.88;;
69260;SDS011;56378;52.404;20.816;2024-03-06T05:29:51;28.23;;;13.65;;
69260;SDS011;56378;52.404;20.816;2024-03-06T05:32:17;27.98;;;13.68;;
69260;SDS011;56378;52.404;20.816;2024-03-06T05:34:43;26.58;;;13.23;;
69260;SDS011;56378;52.404;20.816;2024-03-06T05:37:09;26.35;;;13.00;;
69260;SDS011;56378;52.404;20.816;2024-03-06T05:39:35;31.08;;;12.90;;
69260;SDS011;56378;52.404;20.816;2024-03-06T05:42:03;29.02;;;13.02;;
69260;SDS011;56378;52.404;20.816;2024-03-06T05:44:30;23.38;;;12.02;;
69260;SDS011;56378;52.404;20.816;2024-03-06T05:46:57;27.05;;;12.90;;
69260;SDS011;56378;52.404;20.816;2024-03-06T05:49:23;24.40;;;12.52;;
69260;SDS011;56378;52.404;20.816;2024-03-06T05:51:50;27.02;;;12.07;;
69260;SDS011;56378;52.404;20.816;2024-03-06T05:54:16;24.55;;;11.43;;
69260;SDS011;56378;52.404;20.816;2024-03-06T05:56:42;26.73;;;11.77;;
69260;SDS011;56378;52.404;20.816;2024-03-06T05:59:07;24.27;;;11.40;;
69260;SDS011;56378;52.404;20.816;2024-03-06T06:01:34;24.17;;;12.17;;
69260;SDS011;56378;52.404;20.816;2024-03-06T06:04:00;22.40;;;11.38;;
69260;SDS011;56378;52.404;20.816;2024-03-06T06:06:26;22.08;;;11.18;;
69260;SDS011;56378;52.404;20.816;2024-03-06T06:08:52;22.13;;;10.80;;
69260;SDS011;56378;52.404;20.816;2024-03-06T06:11:18;23.73;;;11.15;;
69260;SDS011;56378;52.404;20.816;2024-03-06T06:13:44;21.13;;;10.75;;
69260;SDS011;56378;52.404;20.816;2024-03-06T06:16:10;22.40;;;10.67;;
69260;SDS011;56378;52.404;20.816;2024-03-06T06:18:35;22.80;;;10.52;;
69260;SDS011;56378;52.404;20.816;2024-03-06T06:21:01;24.00;;;10.60;;
69260;SDS011;56378;52.404;20.816;2024-03-06T06:23:32;24.45;;;10.68;;
69260;SDS011;56378;52.404;20.816;2024-03-06T06:25:58;22.75;;;11.25;;
69260;SDS011;56378;52.404;20.816;2024-03-06T06:28:24;22.02;;;11.52;;
69260;SDS011;56378;52.404;20.816;2024-03-06T06:30:49;18.63;;;10.00;;
69260;SDS011;56378;52.404;20.816;2024-03-06T06:33:17;22.08;;;9.40;;
69260;SDS011;56378;52.404;20.816;2024-03-06T06:35:44;22.77;;;10.63;;
69260;SDS011;56378;52.404;20.816;2024-03-06T06:38:10;20.67;;;10.10;;
69260;SDS011;56378;52.404;20.816;2024-03-06T06:40:36;23.25;;;9.77;;
69260;SDS011;56378;52.404;20.816;2024-03-06T06:43:01;20.13;;;9.70;;
69260;SDS011;56378;52.404;20.816;2024-03-06T06:45:27;25.40;;;10.98;;
69260;SDS011;56378;52.404;20.816;2024-03-06T06:47:53;22.20;;;10.25;;
69260;SDS011;56378;52.404;20.816;2024-03-06T06:50:18;20.90;;;10.45;;
69260;SDS011;56378;52.404;20.816;2024-03-06T06:52:48;23.40;;;9.77;;
69260;SDS011;56378;52.404;20.816;2024-03-06T06:55:13;20.00;;;9.77;;
69260;SDS011;56378;52.404;20.816;2024-03-06T06:57:39;21.27;;;9.65;;
69260;SDS011;56378;52.404;20.816;2024-03-06T07:00:05;23.20;;;10.57;;
69260;SDS011;56378;52.404;20.816;2024-03-06T07:02:43;19.80;;;9.95;;
69260;SDS011;56378;52.404;20.816;2024-03-06T07:05:10;20.13;;;10.10;;
69260;SDS011;56378;52.404;20.816;2024-03-06T07:07:36;23.65;;;9.65;;
69260;SDS011;56378;52.404;20.816;2024-03-06T07:10:03;22.02;;;10.05;;
69260;SDS011;56378;52.404;20.816;2024-03-06T07:12:30;19.88;;;10.40;;
69260;SDS011;56378;52.404;20.816;2024-03-06T07:14:56;19.98;;;9.43;;
69260;SDS011;56378;52.404;20.816;2024-03-06T07:17:22;23.70;;;10.47;;
69260;SDS011;56378;52.404;20.816;2024-03-06T07:19:48;21.10;;;10.02;;
69260;SDS011;56378;52.404;20.816;2024-03-06T07:22:13;21.70;;;10.10;;
69260;SDS011;56378;52.404;20.816;2024-03-06T07:24:39;20.65;;;10.55;;
69260;SDS011;56378;52.404;20.816;2024-03-06T07:27:06;23.48;;;10.57;;
69260;SDS011;56378;52.404;20.816;2024-03-06T07:29:34;21.98;;;10.32;;
69260;SDS011;56378;52.404;20.816;2024-03-06T07:32:00;21.60;;;10.50;;
69260;SDS011;56378;52.404;20.816;2024-03-06T07:34:26;22.17;;;10.27;;
69260;SDS011;56378;52.404;20.816;2024-03-06T07:36:52;20.50;;;10.73;;
69260;SDS011;56378;52.404;20.816;2024-03-06T07:39:21;19.83;;;10.07;;
69260;SDS011;56378;52.404;20.816;2024-03-06T07:41:47;21.45;;;10.23;;
69260;SDS011;56378;52.404;20.816;2024-03-06T07:44:13;20.87;;;9.90;;
69260;SDS011;56378;52.404;20.816;2024-03-06T07:46:38;21.35;;;10.32;;
69260;SDS011;56378;52.404;20.816;2024-03-06T07:49:04;19.23;;;9.95;;
69260;SDS011;56378;52.404;20.816;2024-03-06T07:51:30;24.10;;;10.20;;
69260;SDS011;56378;52.404;20.816;2024-03-06T07:54:00;22.25;;;10.38;;
69260;SDS011;56378;52.404;20.816;2024-03-06T07:56:29;22.52;;;10.02;;
69260;SDS011;56378;52.404;20.816;2024-03-06T07:58:54;22.90;;;10.63;;
69260;SDS011;56378;52.404;20.816;2024-03-06T08:01:20;19.98;;;10.30;;
69260;SDS011;56378;52.404;20.816;2024-03-06T08:03:47;21.80;;;10.20;;
69260;SDS011;56378;52.404;20.816;2024-03-06T08:06:12;21.02;;;10.07;;
69260;SDS011;56378;52.404;20.816;2024-03-06T08:08:40;23.58;;;10.68;;
69260;SDS011;56378;52.404;20.816;2024-03-06T08:11:10;21.00;;;9.85;;
69260;SDS011;56378;52.404;20.816;2024-03-06T08:13:37;22.40;;;10.50;;
69260;SDS011;56378;52.404;20.816;2024-03-06T08:16:04;20.00;;;10.70;;
69260;SDS011;56378;52.404;20.816;2024-03-06T08:18:30;22.98;;;10.00;;
69260;SDS011;56378;52.404;20.816;2024-03-06T08:21:00;21.88;;;10.02;;
69260;SDS011;56378;52.404;20.816;2024-03-06T08:23:26;20.60;;;9.40;;
69260;SDS011;56378;52.404;20.816;2024-03-06T08:25:52;21.58;;;10.38;;
69260;SDS011;56378;52.404;20.816;2024-03-06T08:28:18;18.60;;;9.10;;
69260;SDS011;56378;52.404;20.816;2024-03-06T08:30:44;18.90;;;9.63;;
69260;SDS011;56378;52.404;20.816;2024-03-06T08:33:10;20.13;;;9.20;;
69260;SDS011;56378;52.404;20.816;2024-03-06T08:35:36;22.33;;;9.65;;
69260;SDS011;56378;52.404;20.816;2024-03-06T08:38:02;17.40;;;8.82;;
69260;SDS011;56378;52.404;20.816;2024-03-06T08:40:28;19.08;;;9.93;;
69260;SDS011;56378;52.404;20.816;2024-03-06T08:42:55;19.00;;;9.50;;
69260;SDS011;56378;52.404;20.816;2024-03-06T08:45:21;20.30;;;8.95;;
69260;SDS011;56378;52.404;20.816;2024-03-06T08:47:48;19.17;;;8.77;;
69260;SDS011;56378;52.404;20.816;2024-03-06T08:50:14;21.35;;;9.23;;
69260;SDS011;56378;52.404;20.816;2024-03-06T08:52:41;20.00;;;9.35;;
69260;SDS011;56378;52.404;20.816;2024-03-06T08:55:07;21.75;;;9.05;;
69260;SDS011;56378;52.404;20.816;2024-03-06T08:57:34;19.77;;;8.95;;
69260;SDS011;56378;52.404;20.816;2024-03-06T09:00:00;20.35;;;9.43;;
69260;SDS011;56378;52.404;20.816;2024-03-06T09:02:27;19.60;;;9.63;;
69260;SDS011;56378;52.404;20.816;2024-03-06T09:04:53;19.42;;;9.20;;
69260;SDS011;56378;52.404;20.816;2024-03-06T09:07:19;20.75;;;8.85;;
69260;SDS011;56378;52.404;20.816;2024-03-06T09:09:54;21.38;;;8.68;;
69260;SDS011;56378;52.404;20.816;2024-03-06T09:12:20;19.67;;;8.67;;
69260;SDS011;56378;52.404;20.816;2024-03-06T09:14:46;21.05;;;8.68;;
69260;SDS011;56378;52.404;20.816;2024-03-06T09:17:12;21.97;;;8.67;;
69260;SDS011;56378;52.404;20.816;2024-03-06T09:19:40;18.25;;;8.68;;
69260;SDS011;56378;52.404;20.816;2024-03-06T09:22:07;16.75;;;8.20;;
69260;SDS011;56378;52.404;20.816;2024-03-06T09:24:33;18.90;;;8.20;;
69260;SDS011;56378;52.404;20.816;2024-03-06T09:27:03;17.65;;;8.13;;
69260;SDS011;56378;52.404;20.816;2024-03-06T09:29:29;18.70;;;7.83;;
69260;SDS011;56378;52.404;20.816;2024-03-06T09:31:55;17.73;;;8.00;;
69260;SDS011;56378;52.404;20.816;2024-03-06T09:34:21;18.10;;;7.60;;
69260;SDS011;56378;52.404;20.816;2024-03-06T09:36:47;16.30;;;7.47;;
69260;SDS011;56378;52.404;20.816;2024-03-06T09:39:14;18.13;;;8.45;;
69260;SDS011;56378;52.404;20.816;2024-03-06T09:41:42;17.60;;;8.13;;
69260;SDS011;56378;52.404;20.816;2024-03-06T09:44:09;16.70;;;7.95;;
69260;SDS011;56378;52.404;20.816;2024-03-06T09:46:35;15.93;;;7.60;;
69260;SDS011;56378;52.404;20.816;2024-03-06T09:49:01;16.52;;;8.45;;
69260;SDS011;56378;52.404;20.816;2024-03-06T09:51:27;19.85;;;8.30;;
69260;SDS011;56378;52.404;20.816;2024-03-06T09:53:54;16.17;;;7.47;;
69260;SDS011;56378;52.404;20.816;2024-03-06T09:56:20;16.10;;;7.60;;
69260;SDS011;56378;52.404;20.816;2024-03-06T09:58:46;16.15;;;7.30;;
69260;SDS011;56378;52.404;20.816;2024-03-06T10:01:12;15.80;;;7.68;;
69260;SDS011;56378;52.404;20.816;2024-03-06T10:03:39;16.63;;;7.22;;
69260;SDS011;56378;52.404;20.816;2024-03-06T10:06:08;18.88;;;8.10;;
69260;SDS011;56378;52.404;20.816;2024-03-06T10:08:35;15.13;;;8.10;;
69260;SDS011;56378;52.404;20.816;2024-03-06T10:11:02;17.60;;;7.65;;
69260;SDS011;56378;52.404;20.816;2024-03-06T10:13:28;17.33;;;7.68;;
69260;SDS011;56378;52.404;20.816;2024-03-06T10:15:55;15.40;;;7.78;;
69260;SDS011;56378;52.404;20.816;2024-03-06T10:18:26;17.10;;;7.87;;
69260;SDS011;56378;52.404;20.816;2024-03-06T10:20:57;15.38;;;7.43;;
69260;SDS011;56378;52.404;20.816;2024-03-06T10:23:23;14.75;;;7.43;;
69260;SDS011;56378;52.404;20.816;2024-03-06T10:25:50;17.48;;;7.97;;
69260;SDS011;56378;52.404;20.816;2024-03-06T10:28:17;16.85;;;7.80;;
69260;SDS011;56378;52.404;20.816;2024-03-06T10:30:45;16.07;;;7.47;;
69260;SDS011;56378;52.404;20.816;2024-03-06T10:33:12;16.77;;;7.20;;
69260;SDS011;56378;52.404;20.816;2024-03-06T10:35:40;16.88;;;7.32;;
69260;SDS011;56378;52.404;20.816;2024-03-06T10:38:07;16.67;;;7.38;;
69260;SDS011;56378;52.404;20.816;2024-03-06T10:40:35;15.45;;;6.63;;
69260;SDS011;56378;52.404;20.816;2024-03-06T10:43:02;15.90;;;6.50;;
69260;SDS011;56378;52.404;20.816;2024-03-06T10:48:24;12.15;;;5.95;;
69260;SDS011;56378;52.404;20.816;2024-03-06T10:50:53;12.90;;;6.13;;
69260;SDS011;56378;52.404;20.816;2024-03-06T10:53:20;13.90;;;5.68;;
69260;SDS011;56378;52.404;20.816;2024-03-06T10:55:48;12.60;;;5.93;;
69260;SDS011;56378;52.404;20.816;2024-03-06T10:58:14;14.43;;;5.80;;
69260;SDS011;56378;52.404;20.816;2024-03-06T11:00:42;11.18;;;5.78;;
69260;SDS011;56378;52.404;20.816;2024-03-06T11:03:13;12.02;;;5.63;;
69260;SDS011;56378;52.404;20.816;2024-03-06T11:05:43;12.63;;;6.05;;
69260;SDS011;56378;52.404;20.816;2024-03-06T11:08:13;14.57;;;5.87;;
69260;SDS011;56378;52.404;20.816;2024-03-06T11:10:40;13.35;;;6.45;;
69260;SDS011;56378;52.404;20.816;2024-03-06T11:13:30;13.75;;;5.55;;
69260;SDS011;56378;52.404;20.816;2024-03-06T11:15:58;13.07;;;5.28;;
69260;SDS011;56378;52.404;20.816;2024-03-06T11:20:58;12.63;;;5.00;;
69260;SDS011;56378;52.404;20.816;2024-03-06T11:23:24;13.57;;;5.45;;
69260;SDS011;56378;52.404;20.816;2024-03-06T11:28:17;12.27;;;5.63;;
69260;SDS011;56378;52.404;20.816;2024-03-06T11:30:59;10.07;;;4.97;;
69260;SDS011;56378;52.404;20.816;2024-03-06T11:33:40;8.85;;;4.63;;
69260;SDS011;56378;52.404;20.816;2024-03-06T11:36:20;9.30;;;4.60;;
69260;SDS011;56378;52.404;20.816;2024-03-06T11:38:50;10.73;;;5.13;;
69260;SDS011;56378;52.404;20.816;2024-03-06T11:41:23;10.77;;;4.93;;
69260;SDS011;56378;52.404;20.816;2024-03-06T11:43:53;9.75;;;4.68;;
69260;SDS011;56378;52.404;20.816;2024-03-06T11:46:40;10.38;;;4.93;;
69260;SDS011;56378;52.404;20.816;2024-03-06T11:49:20;9.23;;;4.77;;
69260;SDS011;56378;52.404;20.816;2024-03-06T11:51:47;11.45;;;4.70;;
69260;SDS011;56378;52.404;20.816;2024-03-06T11:54:14;11.02;;;4.97;;
69260;SDS011;56378;52.404;20.816;2024-03-06T11:56:40;10.63;;;4.78;;
69260;SDS011;56378;52.404;20.816;2024-03-06T11:59:06;11.45;;;5.00;;
69260;SDS011;56378;52.404;20.816;2024-03-06T12:01:36;11.87;;;4.77;;
69260;SDS011;56378;52.404;20.816;2024-03-06T12:04:02;10.05;;;4.80;;
69260;SDS011;56378;52.404;20.816;2024-03-06T12:06:34;10.13;;;4.80;;
69260;SDS011;56378;52.404;20.816;2024-03-06T12:09:00;10.32;;;4.68;;
69260;SDS011;56378;52.404;20.816;2024-03-06T12:11:27;10.70;;;4.90;;
69260;SDS011;56378;52.404;20.816;2024-03-06T12:13:53;10.47;;;4.80;;
69260;SDS011;56378;52.404;20.816;2024-03-06T12:16:20;10.00;;;4.30;;
69260;SDS011;56378;52.404;20.816;2024-03-06T12:18:46;9.63;;;4.22;;
69260;SDS011;56378;52.404;20.816;2024-03-06T12:21:19;11.05;;;4.90;;
69260;SDS011;56378;52.404;20.816;2024-03-06T12:23:44;9.37;;;4.93;;
69260;SDS011;56378;52.404;20.816;2024-03-06T12:26:10;9.77;;;4.50;;
69260;SDS011;56378;52.404;20.816;2024-03-06T12:28:36;9.87;;;4.33;;
69260;SDS011;56378;52.404;20.816;2024-03-06T12:31:03;10.52;;;5.25;;
69260;SDS011;56378;52.404;20.816;2024-03-06T12:33:30;10.73;;;4.53;;
69260;SDS011;56378;52.404;20.816;2024-03-06T12:36:13;9.65;;;4.88;;
69260;SDS011;56378;52.404;20.816;2024-03-06T12:38:39;11.27;;;5.30;;
69260;SDS011;56378;52.404;20.816;2024-03-06T12:41:05;12.73;;;5.55;;
69260;SDS011;56378;52.404;20.816;2024-03-06T12:43:31;11.83;;;5.67;;
69260;SDS011;56378;52.404;20.816;2024-03-06T12:45:59;11.18;;;5.28;;
69260;SDS011;56378;52.404;20.816;2024-03-06T12:48:25;12.63;;;5.05;;
69260;SDS011;56378;52.404;20.816;2024-03-06T12:50:51;13.43;;;5.33;;
69260;SDS011;56378;52.404;20.816;2024-03-06T12:53:19;11.10;;;5.15;;
69260;SDS011;56378;52.404;20.816;2024-03-06T12:55:45;11.05;;;4.88;;
69260;SDS011;56378;52.404;20.816;2024-03-06T12:58:11;13.87;;;5.00;;
69260;SDS011;56378;52.404;20.816;2024-03-06T13:00:37;11.63;;;5.20;;
69260;SDS011;56378;52.404;20.816;2024-03-06T13:03:03;10.02;;;4.80;;
69260;SDS011;56378;52.404;20.816;2024-03-06T13:05:30;9.30;;;4.60;;
69260;SDS011;56378;52.404;20.816;2024-03-06T13:07:56;11.18;;;4.78;;
69260;SDS011;56378;52.404;20.816;2024-03-06T13:10:22;12.27;;;5.00;;
69260;SDS011;56378;52.404;20.816;2024-03-06T13:12:48;11.05;;;4.85;;
69260;SDS011;56378;52.404;20.816;2024-03-06T13:15:14;12.70;;;4.83;;
69260;SDS011;56378;52.404;20.816;2024-03-06T13:17:39;11.45;;;5.60;;
69260;SDS011;56378;52.404;20.816;2024-03-06T13:20:06;12.83;;;5.33;;
69260;SDS011;56378;52.404;20.816;2024-03-06T13:22:36;11.55;;;4.90;;
69260;SDS011;56378;52.404;20.816;2024-03-06T13:25:03;10.68;;;4.40;;
69260;SDS011;56378;52.404;20.816;2024-03-06T13:27:29;10.50;;;5.10;;
69260;SDS011;56378;52.404;20.816;2024-03-06T13:29:55;14.77;;;4.93;;
69260;SDS011;56378;52.404;20.816;2024-03-06T13:32:21;13.20;;;4.93;;
69260;SDS011;56378;52.404;20.816;2024-03-06T13:34:47;11.95;;;4.88;;
69260;SDS011;56378;52.404;20.816;2024-03-06T13:37:14;10.80;;;4.70;;
69260;SDS011;56378;52.404;20.816;2024-03-06T13:39:40;10.88;;;4.63;;
69260;SDS011;56378;52.404;20.816;2024-03-06T13:42:06;11.67;;;5.00;;
69260;SDS011;56378;52.404;20.816;2024-03-06T13:44:33;11.00;;;5.35;;
69260;SDS011;56378;52.404;20.816;2024-03-06T13:47:02;10.68;;;4.70;;
69260;SDS011;56378;52.404;20.816;2024-03-06T13:49:38;11.98;;;4.90;;
69260;SDS011;56378;52.404;20.816;2024-03-06T13:52:05;11.50;;;4.75;;
69260;SDS011;56378;52.404;20.816;2024-03-06T13:54:41;9.87;;;4.67;;
69260;SDS011;56378;52.404;20.816;2024-03-06T13:57:08;9.25;;;4.35;;
69260;SDS011;56378;52.404;20.816;2024-03-06T13:59:34;11.45;;;4.88;;
69260;SDS011;56378;52.404;20.816;2024-03-06T14:02:01;11.80;;;4.95;;
69260;SDS011;56378;52.404;20.816;2024-03-06T14:04:28;12.27;;;5.05;;
69260;SDS011;56378;52.404;20.816;2024-03-06T14:06:54;9.60;;;4.20;;
69260;SDS011;56378;52.404;20.816;2024-03-06T14:09:21;10.95;;;4.50;;
69260;SDS011;56378;52.404;20.816;2024-03-06T14:11:49;9.38;;;4.35;;
69260;SDS011;56378;52.404;20.816;2024-03-06T14:14:15;9.48;;;3.92;;
69260;SDS011;56378;52.404;20.816;2024-03-06T14:16:41;12.82;;;4.70;;
69260;SDS011;56378;52.404;20.816;2024-03-06T14:19:07;10.03;;;4.00;;
69260;SDS011;56378;52.404;20.816;2024-03-06T14:21:33;9.43;;;4.18;;